createdAt,value
2023-04-26T00:01:32.104Z,8.33
2023-04-26T00:03:36.048Z,8.32
2023-04-26T00:05:41.377Z,8.28
2023-04-26T00:07:46.836Z,8.25
2023-04-26T00:09:49.890Z,8.23
2023-04-26T00:11:52.637Z,8.20
2023-04-26T00:13:56.434Z,8.18
2023-04-26T00:15:59.630Z,8.17
2023-04-26T00:18:04.603Z,8.18
2023-04-26T00:20:12.410Z,8.16
2023-04-26T00:22:17.319Z,8.14
2023-04-26T00:24:21.158Z,8.12
2023-04-26T00:26:24.137Z,8.11
2023-04-26T00:28:26.761Z,8.12
2023-04-26T00:30:32.859Z,8.07
2023-04-26T00:32:35.692Z,8.04
2023-04-26T00:34:39.340Z,8.04
2023-04-26T00:36:42.367Z,8.04
2023-04-26T00:38:47.330Z,8.04
2023-04-26T00:40:51.952Z,8.03
2023-04-26T00:43:00.243Z,8.02
2023-04-26T00:45:04.637Z,7.99
2023-04-26T00:47:11.145Z,8.00
2023-04-26T00:49:22.683Z,8.02
2023-04-26T00:51:27.134Z,7.99
2023-04-26T00:53:32.538Z,7.98
2023-04-26T00:55:36.575Z,7.98
2023-04-26T00:57:41.159Z,7.98
2023-04-26T00:59:46.194Z,7.98
2023-04-26T01:01:51.517Z,7.98
2023-04-26T01:03:56.986Z,7.98
2023-04-26T01:06:00.418Z,7.97
2023-04-26T01:08:04.851Z,7.96
2023-04-26T01:10:10.099Z,7.96
2023-04-26T01:12:14.866Z,7.96
2023-04-26T01:14:20.584Z,7.97
2023-04-26T01:16:25.332Z,7.95
2023-04-26T01:18:28.904Z,7.91
2023-04-26T01:20:32.324Z,7.85
2023-04-26T01:22:37.967Z,7.79
2023-04-26T01:24:44.973Z,7.72
2023-04-26T01:26:48.259Z,7.71
2023-04-26T01:28:51.935Z,7.68
2023-04-26T01:30:55.608Z,7.67
2023-04-26T01:32:59.006Z,7.65
2023-04-26T01:35:02.655Z,7.65
2023-04-26T01:37:05.450Z,7.67
2023-04-26T01:39:10.897Z,7.68
2023-04-26T01:41:16.129Z,7.66
2023-04-26T01:43:21.134Z,7.61
2023-04-26T01:45:24.066Z,7.56
2023-04-26T01:47:46.835Z,7.56
2023-04-26T01:49:49.927Z,7.57
2023-04-26T01:51:53.440Z,7.54
2023-04-26T01:53:56.100Z,7.53
2023-04-26T01:56:03.066Z,7.53
2023-04-26T01:58:06.936Z,7.53
2023-04-26T02:00:10.390Z,7.50
2023-04-26T02:02:19.123Z,7.45
2023-04-26T02:04:24.489Z,7.39
2023-04-26T02:06:29.454Z,7.36
2023-04-26T02:08:32.653Z,7.35
2023-04-26T02:10:35.988Z,7.34
2023-04-26T02:12:40.314Z,7.31
2023-04-26T02:14:43.721Z,7.29
2023-04-26T02:16:47.008Z,7.28
2023-04-26T02:18:50.063Z,7.28
2023-04-26T02:20:54.274Z,7.28
2023-04-26T02:22:57.100Z,7.31
2023-04-26T02:24:59.694Z,7.34
2023-04-26T02:27:05.216Z,7.33
2023-04-26T02:29:10.042Z,7.30
2023-04-26T02:31:16.343Z,7.27
2023-04-26T02:33:19.046Z,7.23
2023-04-26T02:35:22.967Z,7.19
2023-04-26T02:37:27.710Z,7.16
2023-04-26T02:39:34.670Z,7.15
2023-04-26T02:41:38.401Z,7.16
2023-04-26T02:43:41.689Z,7.14
2023-04-26T02:45:45.588Z,7.15
2023-04-26T02:47:49.976Z,7.16
2023-04-26T02:49:54.789Z,7.13
2023-04-26T02:51:58.003Z,7.12
2023-04-26T02:54:05.730Z,7.11
2023-04-26T02:56:10.209Z,7.11
2023-04-26T02:58:13.458Z,7.10
2023-04-26T03:00:18.353Z,7.09
2023-04-26T03:02:22.282Z,7.05
2023-04-26T03:04:26.519Z,7.03
2023-04-26T03:06:30.540Z,7.00
2023-04-26T03:08:35.285Z,6.96
2023-04-26T03:10:38.376Z,6.94
2023-04-26T03:12:42.469Z,6.92
2023-04-26T03:14:48.428Z,6.89
2023-04-26T03:16:52.336Z,6.85
2023-04-26T03:19:03.520Z,6.79
2023-04-26T03:21:08.747Z,6.76
2023-04-26T03:23:13.062Z,6.73
2023-04-26T03:25:16.535Z,6.71
2023-04-26T03:27:20.259Z,6.68
2023-04-26T03:29:23.401Z,6.68
2023-04-26T03:31:27.518Z,6.69
2023-04-26T03:33:33.508Z,6.71
2023-04-26T03:35:37.309Z,6.71
2023-04-26T03:37:43.532Z,6.72
2023-04-26T03:39:51.761Z,6.72
2023-04-26T03:41:57.115Z,6.70
2023-04-26T03:44:02.438Z,6.69
2023-04-26T03:46:07.739Z,6.68
2023-04-26T03:48:10.996Z,6.66
2023-04-26T03:50:14.111Z,6.66
2023-04-26T03:52:17.632Z,6.63
2023-04-26T03:54:22.577Z,6.59
2023-04-26T03:56:26.403Z,6.56
2023-04-26T03:58:32.528Z,6.53
2023-04-26T04:00:38.851Z,6.52
2023-04-26T04:02:45.147Z,6.51
2023-04-26T04:04:52.504Z,6.50
2023-04-26T04:06:56.342Z,6.44
2023-04-26T04:09:00.057Z,6.41
2023-04-26T04:11:04.057Z,6.37
2023-04-26T04:13:12.557Z,6.35
2023-04-26T04:15:16.580Z,6.35
2023-04-26T04:17:24.240Z,6.36
2023-04-26T04:19:28.171Z,6.36
2023-04-26T04:21:32.160Z,6.34
2023-04-26T04:23:36.796Z,6.31
2023-04-26T04:25:45.602Z,6.30
2023-04-26T04:27:49.180Z,6.28
2023-04-26T04:29:54.016Z,6.28
2023-04-26T04:31:58.240Z,6.27
2023-04-26T04:34:01.621Z,6.24
2023-04-26T04:36:06.357Z,6.23
2023-04-26T04:38:10.170Z,6.21
2023-04-26T04:40:16.104Z,6.19
2023-04-26T04:42:21.762Z,6.18
2023-04-26T04:44:27.061Z,6.15
2023-04-26T04:46:32.928Z,6.13
2023-04-26T04:48:38.779Z,6.12
2023-04-26T04:50:42.646Z,6.15
2023-04-26T04:52:47.207Z,6.18
2023-04-26T04:54:52.863Z,6.16
2023-04-26T04:56:57.913Z,6.12
2023-04-26T04:59:00.538Z,6.11
2023-04-26T05:01:03.431Z,6.08
2023-04-26T05:03:19.439Z,6.07
2023-04-26T05:05:24.098Z,6.07
2023-04-26T05:07:28.914Z,6.06
2023-04-26T05:09:36.696Z,6.06
2023-04-26T05:11:39.737Z,6.07
2023-04-26T05:13:44.221Z,6.07
2023-04-26T05:15:46.962Z,6.06
2023-04-26T05:17:50.137Z,6.04
2023-04-26T05:19:57.722Z,6.03
2023-04-26T05:22:01.933Z,6.04
2023-04-26T05:24:05.861Z,6.07
2023-04-26T05:26:14.085Z,6.09
2023-04-26T05:28:37.335Z,6.14
2023-04-26T05:30:57.290Z,6.18
2023-04-26T05:33:26.222Z,6.23
2023-04-26T05:35:43.325Z,6.29
2023-04-26T05:37:46.582Z,6.34
2023-04-26T05:39:51.705Z,6.39
2023-04-26T05:41:55.391Z,6.45
2023-04-26T05:44:00.062Z,6.49
2023-04-26T05:46:07.758Z,6.53
2023-04-26T05:48:10.533Z,6.55
2023-04-26T05:50:13.612Z,6.56
2023-04-26T05:52:16.685Z,6.60
2023-04-26T05:54:19.429Z,6.62
2023-04-26T05:56:25.909Z,6.66
2023-04-26T05:58:29.389Z,6.69
2023-04-26T06:00:37.842Z,6.74
2023-04-26T06:02:42.476Z,6.78
2023-04-26T06:04:50.218Z,6.85
2023-04-26T06:06:54.741Z,6.91
2023-04-26T06:08:58.673Z,6.97
2023-04-26T06:11:24.999Z,7.02
2023-04-26T06:13:32.799Z,7.04
2023-04-26T06:15:35.860Z,7.05
2023-04-26T06:17:39.481Z,7.04
2023-04-26T06:19:44.297Z,7.05
2023-04-26T06:21:48.929Z,7.03
2023-04-26T06:23:52.287Z,7.04
2023-04-26T06:25:57.731Z,7.05
2023-04-26T06:28:00.947Z,7.09
2023-04-26T06:30:05.161Z,7.10
2023-04-26T06:32:09.587Z,7.09
2023-04-26T06:34:12.356Z,7.09
2023-04-26T06:36:15.419Z,7.10
2023-04-26T06:38:19.927Z,7.12
2023-04-26T06:40:24.167Z,7.17
2023-04-26T06:42:27.111Z,7.22
2023-04-26T06:44:49.249Z,7.27
2023-04-26T06:46:55.957Z,7.29
2023-04-26T06:48:58.914Z,7.29
2023-04-26T06:51:09.002Z,7.33
2023-04-26T06:53:12.885Z,7.33
2023-04-26T06:55:16.271Z,7.35
2023-04-26T06:57:22.718Z,7.39
2023-04-26T06:59:26.495Z,7.41
2023-04-26T07:01:36.956Z,7.41
2023-04-26T07:03:43.934Z,7.43
2023-04-26T07:05:48.715Z,7.48
2023-04-26T07:07:51.484Z,7.52
2023-04-26T07:09:56.269Z,7.55
2023-04-26T07:12:02.926Z,7.58
2023-04-26T07:14:07.829Z,7.59
2023-04-26T07:16:11.373Z,7.61
2023-04-26T07:18:14.203Z,7.65
2023-04-26T07:20:23.298Z,7.64
2023-04-26T07:22:27.813Z,7.65
2023-04-26T07:24:31.028Z,7.66
2023-04-26T07:26:41.522Z,7.68
2023-04-26T07:28:45.065Z,7.75
2023-04-26T07:30:48.063Z,7.81
2023-04-26T07:32:53.499Z,7.84
2023-04-26T07:34:56.988Z,7.84
2023-04-26T07:37:00.667Z,7.87
2023-04-26T07:39:05.677Z,7.87
2023-04-26T07:41:09.702Z,7.90
2023-04-26T07:43:13.834Z,7.90
2023-04-26T07:45:17.427Z,7.92
2023-04-26T07:47:21.333Z,7.97
2023-04-26T07:49:24.221Z,8.01
2023-04-26T07:51:27.581Z,8.04
2023-04-26T07:53:30.848Z,8.06
2023-04-26T07:55:33.837Z,8.06
2023-04-26T07:57:37.703Z,8.11
2023-04-26T07:59:41.989Z,8.16
2023-04-26T08:01:46.000Z,8.17
2023-04-26T08:03:50.241Z,8.21
2023-04-26T08:05:54.131Z,8.24
2023-04-26T08:07:57.396Z,8.25
2023-04-26T08:10:01.924Z,8.27
2023-04-26T08:12:06.750Z,8.31
2023-04-26T08:14:12.993Z,8.36
2023-04-26T08:16:16.192Z,8.40
2023-04-26T08:18:20.815Z,8.48
2023-04-26T08:20:25.439Z,8.54
2023-04-26T08:22:29.573Z,8.60
2023-04-26T08:24:32.731Z,8.65
2023-04-26T08:26:35.491Z,8.68
2023-04-26T08:28:38.667Z,8.68
2023-04-26T08:30:41.839Z,8.67
2023-04-26T08:32:46.258Z,8.63
2023-04-26T08:34:49.062Z,8.57
2023-04-26T08:36:53.538Z,8.54
2023-04-26T08:38:58.085Z,8.54
2023-04-26T08:41:02.397Z,8.57
2023-04-26T08:43:07.548Z,8.60
2023-04-26T08:45:11.765Z,8.61
2023-04-26T08:47:34.716Z,8.64
2023-04-26T08:49:41.627Z,8.67
2023-04-26T08:51:46.629Z,8.69
2023-04-26T08:53:53.423Z,8.78
2023-04-26T08:56:00.170Z,8.88
2023-04-26T08:58:04.485Z,8.97
2023-04-26T09:00:12.947Z,9.03
2023-04-26T09:02:21.370Z,9.11
2023-04-26T09:04:25.362Z,9.22
2023-04-26T09:06:29.450Z,9.25
2023-04-26T09:08:37.011Z,9.24
2023-04-26T09:10:40.253Z,9.33
2023-04-26T09:12:43.038Z,9.32
2023-04-26T09:14:47.592Z,9.29
2023-04-26T09:16:50.635Z,9.33
2023-04-26T09:19:00.538Z,9.37
2023-04-26T09:21:08.607Z,9.43
2023-04-26T09:23:11.364Z,9.43
2023-04-26T09:25:18.279Z,9.43
2023-04-26T09:27:22.581Z,9.38
2023-04-26T09:29:26.118Z,9.38
2023-04-26T09:31:47.785Z,9.40
2023-04-26T09:34:02.951Z,9.45
2023-04-26T09:36:15.536Z,9.51
2023-04-26T09:38:18.857Z,9.56
2023-04-26T09:40:26.261Z,9.61
2023-04-26T09:42:29.103Z,9.62
2023-04-26T09:44:33.164Z,9.64
2023-04-26T09:46:39.222Z,9.69
2023-04-26T09:48:42.240Z,9.71
2023-04-26T09:50:46.666Z,9.69
2023-04-26T09:52:51.471Z,9.69
2023-04-26T09:54:55.219Z,9.70
2023-04-26T09:57:06.410Z,9.76
2023-04-26T09:59:12.743Z,9.83
2023-04-26T10:01:18.882Z,9.89
2023-04-26T10:03:23.343Z,9.91
2023-04-26T10:05:29.627Z,9.94
2023-04-26T10:07:36.665Z,9.95
2023-04-26T10:09:40.770Z,9.94
2023-04-26T10:11:46.498Z,9.96
2023-04-26T10:13:54.664Z,9.96
2023-04-26T10:16:01.185Z,9.98
2023-04-26T10:18:05.710Z,9.98
2023-04-26T10:20:14.079Z,9.99
2023-04-26T10:22:26.077Z,10.01
2023-04-26T10:24:29.085Z,10.03
2023-04-26T10:26:48.727Z,10.04
2023-04-26T10:29:02.003Z,10.01
2023-04-26T10:31:07.461Z,9.98
2023-04-26T10:33:17.220Z,10.01
2023-04-26T10:35:22.211Z,10.07
2023-04-26T10:37:25.192Z,10.13
2023-04-26T10:39:28.412Z,10.16
2023-04-26T10:41:37.280Z,10.19
2023-04-26T10:43:42.936Z,10.22
2023-04-26T10:45:46.963Z,10.21
2023-04-26T10:47:49.765Z,10.22
2023-04-26T10:49:53.219Z,10.27
2023-04-26T10:52:21.207Z,10.28
2023-04-26T10:54:24.488Z,10.31
2023-04-26T10:56:29.317Z,10.32
2023-04-26T10:58:34.969Z,10.36
2023-04-26T11:00:38.971Z,10.39
2023-04-26T11:02:46.917Z,10.38
2023-04-26T11:04:53.206Z,10.42
2023-04-26T11:07:00.560Z,10.42
2023-04-26T11:09:05.516Z,10.40
2023-04-26T11:11:12.572Z,10.40
2023-04-26T11:13:18.541Z,10.42
2023-04-26T11:15:21.824Z,10.48
2023-04-26T11:17:25.645Z,10.52
2023-04-26T11:19:28.854Z,10.59
2023-04-26T11:21:33.140Z,10.63
2023-04-26T11:23:36.760Z,10.67
2023-04-26T11:25:40.141Z,10.67
2023-04-26T11:27:43.416Z,10.73
2023-04-26T11:29:47.196Z,10.77
2023-04-26T11:32:00.638Z,10.77
2023-04-26T11:34:07.096Z,10.83
2023-04-26T11:36:10.965Z,10.87
2023-04-26T11:38:14.954Z,10.89
2023-04-26T11:40:19.032Z,10.88
2023-04-26T11:42:27.472Z,10.83
2023-04-26T11:44:30.423Z,10.80
2023-04-26T11:46:34.070Z,10.78
2023-04-26T11:48:41.610Z,10.77
2023-04-26T11:50:45.832Z,10.75
2023-04-26T11:52:48.642Z,10.76
2023-04-26T11:55:04.484Z,10.79
2023-04-26T11:57:16.731Z,10.84
2023-04-26T11:59:33.272Z,10.93
2023-04-26T12:01:35.854Z,10.98
2023-04-26T12:03:38.955Z,11.03
2023-04-26T12:05:42.820Z,11.00
2023-04-26T12:07:50.726Z,10.97
2023-04-26T12:09:56.780Z,10.98
2023-04-26T12:12:06.769Z,10.98
2023-04-26T12:14:10.290Z,11.02
2023-04-26T12:16:25.437Z,11.07
2023-04-26T12:18:32.917Z,11.11
2023-04-26T12:20:38.954Z,11.13
2023-04-26T12:22:41.929Z,11.14
2023-04-26T12:24:44.894Z,11.18
2023-04-26T12:26:49.637Z,11.25
2023-04-26T12:28:55.018Z,11.38
2023-04-26T12:30:57.963Z,11.50
2023-04-26T12:33:13.050Z,11.59
2023-04-26T12:35:20.661Z,11.68
2023-04-26T12:37:24.586Z,11.74
2023-04-26T12:39:27.603Z,11.80
2023-04-26T12:41:31.184Z,11.87
2023-04-26T12:43:34.188Z,11.91
2023-04-26T12:45:36.940Z,11.97
2023-04-26T12:47:41.956Z,12.03
2023-04-26T12:49:44.469Z,12.09
2023-04-26T12:51:48.448Z,12.16
2023-04-26T12:53:51.248Z,12.23
2023-04-26T12:55:54.039Z,12.24
2023-04-26T12:57:57.885Z,12.16
2023-04-26T13:00:01.399Z,12.09
2023-04-26T13:02:12.977Z,12.08
2023-04-26T13:04:19.483Z,12.11
2023-04-26T13:06:23.984Z,12.10
2023-04-26T13:08:37.434Z,12.08
2023-04-26T13:10:43.668Z,12.07
2023-04-26T13:12:51.763Z,12.13
2023-04-26T13:14:56.896Z,12.18
2023-04-26T13:17:00.323Z,12.21
2023-04-26T13:19:09.526Z,12.22
2023-04-26T13:21:14.195Z,12.26
2023-04-26T13:23:24.326Z,12.31
2023-04-26T13:25:27.786Z,12.35
2023-04-26T13:27:34.268Z,12.43
2023-04-26T13:29:38.419Z,12.51
2023-04-26T13:31:41.606Z,12.57
2023-04-26T13:33:45.571Z,12.64
2023-04-26T13:35:48.325Z,12.64
2023-04-26T13:37:51.020Z,12.63
2023-04-26T13:39:55.471Z,12.64
2023-04-26T13:42:02.007Z,12.64
2023-04-26T13:44:07.564Z,12.71
2023-04-26T13:46:17.961Z,12.75
2023-04-26T13:48:24.240Z,12.72
2023-04-26T13:50:27.183Z,12.70
2023-04-26T13:52:30.935Z,12.67
2023-04-26T13:54:37.633Z,12.70
2023-04-26T13:56:44.869Z,12.75
2023-04-26T13:58:47.632Z,12.77
2023-04-26T14:00:50.520Z,12.79
2023-04-26T14:02:54.843Z,12.85
2023-04-26T14:04:59.432Z,12.91
2023-04-26T14:07:02.065Z,12.91
2023-04-26T14:09:09.503Z,12.90
2023-04-26T14:11:14.249Z,12.91
2023-04-26T14:13:17.042Z,12.96
2023-04-26T14:15:19.822Z,13.01
2023-04-26T14:17:27.601Z,13.05
2023-04-26T14:19:30.716Z,13.04
2023-04-26T14:21:33.916Z,12.97
2023-04-26T14:23:37.001Z,12.98
2023-04-26T14:25:40.456Z,13.07
2023-04-26T14:27:46.416Z,13.09
2023-04-26T14:29:50.352Z,13.07
2023-04-26T14:31:53.038Z,13.06
2023-04-26T14:33:56.657Z,13.06
2023-04-26T14:36:00.644Z,13.03
2023-04-26T14:38:03.241Z,12.96
2023-04-26T14:40:07.967Z,13.01
2023-04-26T14:42:11.369Z,13.15
2023-04-26T14:44:15.602Z,13.38
2023-04-26T14:46:18.723Z,13.54
2023-04-26T14:48:30.450Z,13.61
2023-04-26T14:50:33.458Z,13.71
2023-04-26T14:52:37.546Z,13.83
2023-04-26T14:54:41.837Z,13.95
2023-04-26T14:56:48.937Z,13.96
2023-04-26T14:58:52.916Z,13.94
2023-04-26T15:00:56.401Z,13.90
2023-04-26T15:03:01.765Z,13.82
2023-04-26T15:05:05.973Z,13.69
2023-04-26T15:07:18.047Z,13.61
2023-04-26T15:09:32.178Z,13.56
2023-04-26T15:11:37.085Z,13.59
2023-04-26T15:13:41.100Z,13.71
2023-04-26T15:15:43.872Z,13.89
2023-04-26T15:17:47.693Z,14.05
2023-04-26T15:19:52.269Z,14.02
2023-04-26T15:21:55.262Z,13.94
2023-04-26T15:23:58.409Z,13.89
2023-04-26T15:26:02.471Z,13.81
2023-04-26T15:28:05.555Z,13.73
2023-04-26T15:30:10.989Z,13.66
2023-04-26T15:32:14.090Z,13.72
2023-04-26T15:34:25.577Z,13.76
2023-04-26T15:36:28.350Z,13.66
2023-04-26T15:38:30.900Z,13.67
2023-04-26T15:40:39.002Z,13.69
2023-04-26T15:42:43.098Z,13.61
2023-04-26T15:44:49.014Z,13.50
2023-04-26T15:46:54.186Z,13.59
2023-04-26T15:48:56.985Z,13.62
2023-04-26T15:51:05.196Z,13.60
2023-04-26T15:53:08.050Z,13.74
2023-04-26T15:55:12.475Z,13.96
2023-04-26T15:57:18.223Z,14.07
2023-04-26T15:59:22.576Z,14.28
2023-04-26T16:01:29.055Z,14.68
2023-04-26T16:03:34.739Z,15.15
2023-04-26T16:05:37.528Z,15.54
2023-04-26T16:07:41.012Z,15.89
2023-04-26T16:09:44.841Z,16.27
2023-04-26T16:11:47.821Z,16.61
2023-04-26T16:13:51.911Z,16.80
2023-04-26T16:15:56.447Z,16.67
2023-04-26T16:17:59.173Z,16.45
2023-04-26T16:20:04.768Z,16.14
2023-04-26T16:22:07.622Z,15.90
2023-04-26T16:24:12.430Z,15.74
2023-04-26T16:26:15.123Z,15.60
2023-04-26T16:28:18.005Z,15.48
2023-04-26T16:30:21.190Z,15.40
2023-04-26T16:32:24.098Z,15.25
2023-04-26T16:34:26.946Z,15.04
2023-04-26T16:36:34.437Z,14.80
2023-04-26T16:38:39.604Z,14.61
2023-04-26T16:40:44.164Z,14.49
2023-04-26T16:42:47.820Z,14.37
2023-04-26T16:44:50.464Z,14.28
2023-04-26T16:46:55.198Z,14.22
2023-04-26T16:48:58.577Z,14.13
2023-04-26T16:51:03.564Z,14.07
2023-04-26T16:53:08.119Z,14.03
2023-04-26T16:55:12.437Z,13.99
2023-04-26T16:57:16.750Z,13.91
2023-04-26T16:59:19.393Z,13.80
2023-04-26T17:01:22.537Z,13.70
2023-04-26T17:03:28.510Z,13.62
2023-04-26T17:05:50.312Z,13.58
2023-04-26T17:07:53.216Z,13.52
2023-04-26T17:09:56.347Z,13.51
2023-04-26T17:11:59.173Z,13.71
2023-04-26T17:14:02.091Z,14.24
2023-04-26T17:16:05.893Z,14.89
2023-04-26T17:18:09.964Z,15.50
2023-04-26T17:20:13.690Z,16.08
2023-04-26T17:22:16.778Z,16.36
2023-04-26T17:24:19.939Z,16.29
2023-04-26T17:26:22.737Z,16.01
2023-04-26T17:28:26.643Z,15.66
2023-04-26T17:30:29.618Z,15.36
2023-04-26T17:32:32.335Z,15.10
2023-04-26T17:34:37.780Z,14.94
2023-04-26T17:36:41.073Z,14.97
2023-04-26T17:38:44.128Z,15.08
2023-04-26T17:40:54.099Z,15.16
2023-04-26T17:42:56.789Z,15.06
2023-04-26T17:45:01.569Z,14.91
2023-04-26T17:47:07.903Z,14.83
2023-04-26T17:49:13.914Z,14.67
2023-04-26T17:51:16.743Z,14.51
2023-04-26T17:53:19.673Z,14.37
2023-04-26T17:55:22.588Z,14.21
2023-04-26T17:57:27.175Z,14.07
2023-04-26T17:59:31.088Z,13.96
2023-04-26T18:01:36.437Z,13.88
2023-04-26T18:03:40.364Z,13.79
2023-04-26T18:05:46.791Z,13.70
2023-04-26T18:07:49.897Z,13.61
2023-04-26T18:09:53.275Z,13.52
2023-04-26T18:11:56.257Z,13.43
2023-04-26T18:13:59.576Z,13.32
2023-04-26T18:16:03.649Z,13.23
2023-04-26T18:18:08.097Z,13.15
2023-04-26T18:20:13.257Z,13.06
2023-04-26T18:22:16.038Z,12.98
2023-04-26T18:24:19.767Z,12.92
2023-04-26T18:26:27.429Z,12.87
2023-04-26T18:28:31.922Z,12.81
2023-04-26T18:30:37.957Z,12.73
2023-04-26T18:32:41.296Z,12.67
2023-04-26T18:34:44.651Z,12.62
2023-04-26T18:36:49.248Z,12.57
2023-04-26T18:38:53.451Z,12.50
2023-04-26T18:40:56.446Z,12.44
2023-04-26T18:43:00.094Z,12.37
2023-04-26T18:45:10.516Z,12.32
2023-04-26T18:47:13.602Z,12.29
2023-04-26T18:49:19.900Z,12.25
2023-04-26T18:51:24.801Z,12.23
2023-04-26T18:53:28.093Z,12.20
2023-04-26T18:55:31.852Z,12.15
2023-04-26T18:57:34.426Z,12.11
2023-04-26T18:59:38.983Z,12.07
2023-04-26T19:01:41.968Z,12.01
2023-04-26T19:03:45.294Z,11.96
2023-04-26T19:05:56.123Z,11.90
2023-04-26T19:07:59.173Z,11.84
2023-04-26T19:10:04.351Z,11.78
2023-04-26T19:12:09.228Z,11.71
2023-04-26T19:14:12.049Z,11.66
2023-04-26T19:16:14.842Z,11.63
2023-04-26T19:18:18.012Z,11.60
2023-04-26T19:20:20.750Z,11.57
2023-04-26T19:22:23.332Z,11.54
2023-04-26T19:24:25.971Z,11.44
2023-04-26T19:26:28.559Z,11.36
2023-04-26T19:28:31.880Z,11.28
2023-04-26T19:30:36.421Z,11.22
2023-04-26T19:32:39.224Z,11.17
2023-04-26T19:34:42.082Z,11.13
2023-04-26T19:36:47.826Z,11.11
2023-04-26T19:38:50.834Z,11.10
2023-04-26T19:40:55.628Z,11.08
2023-04-26T19:42:59.441Z,11.05
2023-04-26T19:45:04.639Z,11.03
2023-04-26T19:47:09.557Z,11.01
2023-04-26T19:49:13.864Z,10.97
2023-04-26T19:51:20.788Z,10.94
2023-04-26T19:53:25.583Z,10.90
2023-04-26T19:55:34.059Z,10.86
2023-04-26T19:57:38.237Z,10.78
2023-04-26T19:59:45.794Z,10.66
2023-04-26T20:01:51.010Z,10.58
2023-04-26T20:03:57.196Z,10.47
2023-04-26T20:06:01.387Z,10.40
2023-04-26T20:08:04.890Z,10.39
2023-04-26T20:10:09.888Z,10.36
2023-04-26T20:12:13.731Z,10.34
2023-04-26T20:14:16.513Z,10.29
2023-04-26T20:16:20.038Z,10.27
2023-04-26T20:18:23.806Z,10.21
2023-04-26T20:20:26.665Z,10.14
2023-04-26T20:22:29.968Z,10.04
2023-04-26T20:24:33.494Z,9.93
2023-04-26T20:26:36.207Z,9.86
2023-04-26T20:28:40.077Z,9.82
2023-04-26T20:30:43.140Z,9.83
2023-04-26T20:32:47.469Z,9.84
2023-04-26T20:34:51.347Z,9.84
2023-04-26T20:36:56.273Z,9.84
2023-04-26T20:38:59.581Z,9.83
2023-04-26T20:41:03.594Z,9.77
2023-04-26T20:43:09.239Z,9.70
2023-04-26T20:45:13.894Z,9.63
2023-04-26T20:47:19.269Z,9.54
2023-04-26T20:49:23.488Z,9.47
2023-04-26T20:51:26.916Z,9.40
2023-04-26T20:53:31.953Z,9.34
2023-04-26T20:55:36.835Z,9.28
2023-04-26T20:57:42.728Z,9.23
2023-04-26T20:59:45.501Z,9.20
2023-04-26T21:01:48.700Z,9.15
2023-04-26T21:03:52.991Z,9.11
2023-04-26T21:05:56.361Z,9.08
2023-04-26T21:07:59.343Z,9.04
2023-04-26T21:10:02.519Z,9.01
2023-04-26T21:12:05.639Z,8.97
2023-04-26T21:14:09.275Z,8.96
2023-04-26T21:16:12.716Z,8.96
2023-04-26T21:18:15.715Z,8.95
2023-04-26T21:20:19.149Z,8.94
2023-04-26T21:22:22.271Z,8.92
2023-04-26T21:24:27.294Z,8.91
2023-04-26T21:26:31.322Z,8.88
2023-04-26T21:28:36.743Z,8.84
2023-04-26T21:30:39.492Z,8.84
2023-04-26T21:32:44.062Z,8.83
2023-04-26T21:34:49.527Z,8.82
2023-04-26T21:37:11.328Z,8.77
2023-04-26T21:39:16.290Z,8.76
2023-04-26T21:41:19.329Z,8.80
2023-04-26T21:43:25.856Z,8.84
2023-04-26T21:45:30.081Z,8.88
2023-04-26T21:47:33.275Z,8.91
2023-04-26T21:49:36.587Z,8.93
2023-04-26T21:51:40.826Z,8.96
2023-04-26T21:53:43.967Z,8.99
2023-04-26T21:55:53.722Z,9.00
2023-04-26T21:57:56.676Z,9.02
2023-04-26T21:59:59.368Z,9.02
2023-04-26T22:02:05.163Z,9.02
2023-04-26T22:04:08.244Z,9.03
2023-04-26T22:06:13.878Z,9.04
2023-04-26T22:08:16.950Z,9.05
2023-04-26T22:10:21.236Z,9.06
2023-04-26T22:12:24.205Z,9.07
2023-04-26T22:14:27.017Z,9.06
2023-04-26T22:16:29.820Z,9.05
2023-04-26T22:18:35.088Z,9.02
2023-04-26T22:20:38.442Z,8.97
2023-04-26T22:22:41.528Z,8.93
2023-04-26T22:24:44.170Z,8.94
2023-04-26T22:26:48.170Z,8.92
2023-04-26T22:28:52.190Z,8.90
2023-04-26T22:30:54.786Z,8.85
2023-04-26T22:32:59.681Z,8.84
2023-04-26T22:35:03.788Z,8.82
2023-04-26T22:37:19.633Z,8.77
2023-04-26T22:39:24.032Z,8.70
2023-04-26T22:41:27.808Z,8.63
2023-04-26T22:43:32.619Z,8.58
2023-04-26T22:45:35.676Z,8.52
2023-04-26T22:47:39.333Z,8.49
2023-04-26T22:49:42.608Z,8.46
2023-04-26T22:51:57.325Z,8.38
2023-04-26T22:54:05.977Z,8.34
2023-04-26T22:56:10.425Z,8.31
2023-04-26T22:58:14.367Z,8.31
2023-04-26T23:00:17.998Z,8.31
2023-04-26T23:02:21.747Z,8.31
2023-04-26T23:04:24.638Z,8.29
2023-04-26T23:06:28.011Z,8.27
2023-04-26T23:08:32.169Z,8.25
2023-04-26T23:10:36.929Z,8.24
2023-04-26T23:12:41.586Z,8.24
2023-04-26T23:14:44.197Z,8.23
2023-04-26T23:16:51.622Z,8.21
2023-04-26T23:18:54.908Z,8.19
2023-04-26T23:20:57.912Z,8.19
2023-04-26T23:23:00.743Z,8.20
2023-04-26T23:25:04.431Z,8.20
2023-04-26T23:27:07.629Z,8.23
2023-04-26T23:29:11.263Z,8.24
2023-04-26T23:31:15.533Z,8.25
2023-04-26T23:33:18.212Z,8.27
2023-04-26T23:35:26.790Z,8.26
2023-04-26T23:37:29.577Z,8.21
2023-04-26T23:39:32.326Z,8.20
2023-04-26T23:41:36.392Z,8.18
2023-04-26T23:43:39.643Z,8.14
2023-04-26T23:45:47.419Z,8.12
2023-04-26T23:47:50.423Z,8.07
2023-04-26T23:50:06.424Z,8.03
2023-04-26T23:52:13.570Z,7.97
2023-04-26T23:54:17.997Z,7.89
2023-04-26T23:56:22.176Z,7.88
2023-04-26T23:58:25.438Z,7.91
